sensor_id;sensor_type;location;lat;lon;timestamp;P1;durP1;ratioP1;P2;durP2;ratioP2
7432;SDS011;32233;49.500;7.764;2023-02-28T00:00:31;2.07;;;1.60;;
7432;SDS011;32233;49.500;7.764;2023-02-28T00:02:58;2.47;;;2.30;;
7432;SDS011;32233;49.500;7.764;2023-02-28T00:05:25;3.67;;;3.30;;
7432;SDS011;32233;49.500;7.764;2023-02-28T00:07:53;2.73;;;2.50;;
7432;SDS011;32233;49.500;7.764;2023-02-28T00:10:21;2.83;;;1.83;;
7432;SDS011;32233;49.500;7.764;2023-02-28T00:12:50;1.87;;;1.63;;
7432;SDS011;32233;49.500;7.764;2023-02-28T00:15:18;1.83;;;1.73;;
7432;SDS011;32233;49.500;7.764;2023-02-28T00:17:45;2.27;;;1.97;;
7432;SDS011;32233;49.500;7.764;2023-02-28T00:20:12;2.40;;;2.20;;
7432;SDS011;32233;49.500;7.764;2023-02-28T00:22:40;3.10;;;1.87;;
7432;SDS011;32233;49.500;7.764;2023-02-28T00:25:08;2.60;;;2.10;;
7432;SDS011;32233;49.500;7.764;2023-02-28T00:27:37;3.20;;;1.97;;
7432;SDS011;32233;49.500;7.764;2023-02-28T00:30:05;2.70;;;2.27;;
7432;SDS011;32233;49.500;7.764;2023-02-28T00:32:33;2.50;;;2.30;;
7432;SDS011;32233;49.500;7.764;2023-02-28T00:35:01;2.10;;;1.90;;
7432;SDS011;32233;49.500;7.764;2023-02-28T00:37:28;4.83;;;2.40;;
7432;SDS011;32233;49.500;7.764;2023-02-28T00:39:55;2.53;;;2.03;;
7432;SDS011;32233;49.500;7.764;2023-02-28T00:42:22;2.43;;;2.23;;
7432;SDS011;32233;49.500;7.764;2023-02-28T00:44:48;3.03;;;2.40;;
7432;SDS011;32233;49.500;7.764;2023-02-28T00:47:15;3.63;;;2.53;;
7432;SDS011;32233;49.500;7.764;2023-02-28T00:49:42;3.37;;;2.20;;
7432;SDS011;32233;49.500;7.764;2023-02-28T00:52:09;2.90;;;2.70;;
7432;SDS011;32233;49.500;7.764;2023-02-28T00:54:35;2.43;;;2.23;;
7432;SDS011;32233;49.500;7.764;2023-02-28T00:57:02;2.77;;;2.47;;
7432;SDS011;32233;49.500;7.764;2023-02-28T00:59:30;2.40;;;2.20;;
7432;SDS011;32233;49.500;7.764;2023-02-28T01:01:57;3.17;;;1.90;;
7432;SDS011;32233;49.500;7.764;2023-02-28T01:04:24;2.70;;;2.23;;
7432;SDS011;32233;49.500;7.764;2023-02-28T01:06:50;2.47;;;2.23;;
7432;SDS011;32233;49.500;7.764;2023-02-28T01:09:17;3.90;;;2.50;;
7432;SDS011;32233;49.500;7.764;2023-02-28T01:11:43;2.80;;;2.60;;
7432;SDS011;32233;49.500;7.764;2023-02-28T01:14:14;3.20;;;2.63;;
7432;SDS011;32233;49.500;7.764;2023-02-28T01:16:44;3.20;;;2.33;;
7432;SDS011;32233;49.500;7.764;2023-02-28T01:19:11;2.67;;;2.43;;
7432;SDS011;32233;49.500;7.764;2023-02-28T01:21:37;3.27;;;2.60;;
7432;SDS011;32233;49.500;7.764;2023-02-28T01:24:04;2.83;;;2.40;;
7432;SDS011;32233;49.500;7.764;2023-02-28T01:26:31;2.77;;;2.57;;
7432;SDS011;32233;49.500;7.764;2023-02-28T01:28:58;4.40;;;2.30;;
7432;SDS011;32233;49.500;7.764;2023-02-28T01:31:25;2.90;;;2.70;;
7432;SDS011;32233;49.500;7.764;2023-02-28T01:33:52;3.13;;;2.60;;
7432;SDS011;32233;49.500;7.764;2023-02-28T01:36:21;4.03;;;2.67;;
7432;SDS011;32233;49.500;7.764;2023-02-28T01:38:50;4.20;;;3.17;;
7432;SDS011;32233;49.500;7.764;2023-02-28T01:41:28;3.40;;;3.10;;
7432;SDS011;32233;49.500;7.764;2023-02-28T01:44:06;4.00;;;2.50;;
7432;SDS011;32233;49.500;7.764;2023-02-28T01:46:54;3.10;;;2.83;;
7432;SDS011;32233;49.500;7.764;2023-02-28T01:49:21;4.53;;;2.60;;
7432;SDS011;32233;49.500;7.764;2023-02-28T01:51:51;3.97;;;3.03;;
7432;SDS011;32233;49.500;7.764;2023-02-28T01:54:25;4.80;;;3.60;;
7432;SDS011;32233;49.500;7.764;2023-02-28T01:57:00;3.20;;;2.90;;
7432;SDS011;32233;49.500;7.764;2023-02-28T01:59:36;3.73;;;3.30;;
7432;SDS011;32233;49.500;7.764;2023-02-28T02:02:06;3.33;;;3.13;;
7432;SDS011;32233;49.500;7.764;2023-02-28T02:07:29;3.57;;;3.20;;
7432;SDS011;32233;49.500;7.764;2023-02-28T02:10:06;4.87;;;3.47;;
7432;SDS011;32233;49.500;7.764;2023-02-28T02:15:34;3.40;;;3.10;;
7432;SDS011;32233;49.500;7.764;2023-02-28T02:18:32;4.37;;;3.57;;
7432;SDS011;32233;49.500;7.764;2023-02-28T02:23:55;3.60;;;3.00;;
7432;SDS011;32233;49.500;7.764;2023-02-28T02:29:31;3.40;;;2.83;;
7432;SDS011;32233;49.500;7.764;2023-02-28T02:35:18;3.40;;;3.03;;
7432;SDS011;32233;49.500;7.764;2023-02-28T02:40:47;3.37;;;2.97;;
7432;SDS011;32233;49.500;7.764;2023-02-28T02:43:26;3.50;;;3.20;;
7432;SDS011;32233;49.500;7.764;2023-02-28T02:46:04;4.07;;;3.30;;
7432;SDS011;32233;49.500;7.764;2023-02-28T02:48:36;3.77;;;3.20;;
7432;SDS011;32233;49.500;7.764;2023-02-28T02:51:07;3.73;;;3.30;;
7432;SDS011;32233;49.500;7.764;2023-02-28T02:53:42;4.20;;;2.93;;
7432;SDS011;32233;49.500;7.764;2023-02-28T02:56:17;3.20;;;2.87;;
7432;SDS011;32233;49.500;7.764;2023-02-28T02:58:46;4.53;;;3.07;;
7432;SDS011;32233;49.500;7.764;2023-02-28T03:01:16;4.87;;;3.13;;
7432;SDS011;32233;49.500;7.764;2023-02-28T03:03:58;4.10;;;3.27;;
7432;SDS011;32233;49.500;7.764;2023-02-28T03:06:27;3.60;;;3.30;;
7432;SDS011;32233;49.500;7.764;2023-02-28T03:08:54;4.13;;;3.10;;
7432;SDS011;32233;49.500;7.764;2023-02-28T03:11:21;4.20;;;3.10;;
7432;SDS011;32233;49.500;7.764;2023-02-28T03:13:58;3.37;;;3.10;;
7432;SDS011;32233;49.500;7.764;2023-02-28T03:17:00;4.50;;;3.13;;
7432;SDS011;32233;49.500;7.764;2023-02-28T03:25:27;3.47;;;3.10;;
7432;SDS011;32233;49.500;7.764;2023-02-28T03:28:00;3.97;;;3.10;;
7432;SDS011;32233;49.500;7.764;2023-02-28T03:33:21;3.20;;;2.90;;
7432;SDS011;32233;49.500;7.764;2023-02-28T03:35:54;3.80;;;3.27;;
7432;SDS011;32233;49.500;7.764;2023-02-28T03:38:44;4.63;;;3.10;;
7432;SDS011;32233;49.500;7.764;2023-02-28T03:41:25;3.73;;;3.33;;
7432;SDS011;32233;49.500;7.764;2023-02-28T03:44:00;4.20;;;2.90;;
7432;SDS011;32233;49.500;7.764;2023-02-28T03:46:33;5.20;;;3.37;;
7432;SDS011;32233;49.500;7.764;2023-02-28T03:49:05;5.73;;;3.13;;
7432;SDS011;32233;49.500;7.764;2023-02-28T03:51:40;5.03;;;3.57;;
7432;SDS011;32233;49.500;7.764;2023-02-28T03:54:09;3.67;;;3.37;;
7432;SDS011;32233;49.500;7.764;2023-02-28T03:56:49;3.63;;;3.33;;
7432;SDS011;32233;49.500;7.764;2023-02-28T03:59:22;3.93;;;3.43;;
7432;SDS011;32233;49.500;7.764;2023-02-28T04:02:00;4.80;;;3.70;;
7432;SDS011;32233;49.500;7.764;2023-02-28T04:04:27;3.70;;;3.27;;
7432;SDS011;32233;49.500;7.764;2023-02-28T04:07:00;4.83;;;3.80;;
7432;SDS011;32233;49.500;7.764;2023-02-28T04:09:29;4.90;;;3.50;;
7432;SDS011;32233;49.500;7.764;2023-02-28T04:11:55;6.63;;;4.27;;
7432;SDS011;32233;49.500;7.764;2023-02-28T04:14:23;5.20;;;4.20;;
7432;SDS011;32233;49.500;7.764;2023-02-28T04:16:50;4.37;;;3.97;;
7432;SDS011;32233;49.500;7.764;2023-02-28T04:19:17;7.47;;;4.03;;
7432;SDS011;32233;49.500;7.764;2023-02-28T04:21:45;4.87;;;4.40;;
7432;SDS011;32233;49.500;7.764;2023-02-28T04:24:15;4.47;;;4.07;;
7432;SDS011;32233;49.500;7.764;2023-02-28T04:26:44;6.37;;;4.10;;
7432;SDS011;32233;49.500;7.764;2023-02-28T04:29:13;4.80;;;4.03;;
7432;SDS011;32233;49.500;7.764;2023-02-28T04:31:44;4.97;;;4.17;;
7432;SDS011;32233;49.500;7.764;2023-02-28T04:34:10;5.13;;;4.27;;
7432;SDS011;32233;49.500;7.764;2023-02-28T04:36:37;5.63;;;3.90;;
7432;SDS011;32233;49.500;7.764;2023-02-28T04:39:03;6.73;;;4.40;;
7432;SDS011;32233;49.500;7.764;2023-02-28T04:41:30;6.43;;;4.30;;
7432;SDS011;32233;49.500;7.764;2023-02-28T04:43:58;6.50;;;4.40;;
7432;SDS011;32233;49.500;7.764;2023-02-28T04:46:24;6.30;;;4.77;;
7432;SDS011;32233;49.500;7.764;2023-02-28T04:48:51;5.70;;;4.17;;
7432;SDS011;32233;49.500;7.764;2023-02-28T04:51:19;7.20;;;4.73;;
7432;SDS011;32233;49.500;7.764;2023-02-28T04:53:46;8.23;;;5.40;;
7432;SDS011;32233;49.500;7.764;2023-02-28T04:56:15;8.70;;;5.13;;
7432;SDS011;32233;49.500;7.764;2023-02-28T04:58:43;8.90;;;5.10;;
7432;SDS011;32233;49.500;7.764;2023-02-28T05:01:20;5.33;;;4.43;;
7432;SDS011;32233;49.500;7.764;2023-02-28T05:03:53;5.30;;;4.33;;
7432;SDS011;32233;49.500;7.764;2023-02-28T05:06:22;5.87;;;4.90;;
7432;SDS011;32233;49.500;7.764;2023-02-28T05:08:50;7.00;;;4.80;;
7432;SDS011;32233;49.500;7.764;2023-02-28T05:11:21;5.30;;;4.77;;
7432;SDS011;32233;49.500;7.764;2023-02-28T05:13:52;6.97;;;4.60;;
7432;SDS011;32233;49.500;7.764;2023-02-28T05:16:20;5.83;;;4.63;;
7432;SDS011;32233;49.500;7.764;2023-02-28T05:18:47;5.97;;;4.77;;
7432;SDS011;32233;49.500;7.764;2023-02-28T05:23:55;7.17;;;5.27;;
7432;SDS011;32233;49.500;7.764;2023-02-28T05:26:22;5.67;;;5.07;;
7432;SDS011;32233;49.500;7.764;2023-02-28T05:28:50;7.13;;;4.83;;
7432;SDS011;32233;49.500;7.764;2023-02-28T05:31:16;6.53;;;5.27;;
7432;SDS011;32233;49.500;7.764;2023-02-28T05:33:43;7.13;;;5.70;;
7432;SDS011;32233;49.500;7.764;2023-02-28T05:36:10;7.40;;;5.10;;
7432;SDS011;32233;49.500;7.764;2023-02-28T05:38:36;8.97;;;5.40;;
7432;SDS011;32233;49.500;7.764;2023-02-28T05:41:05;6.77;;;5.17;;
7432;SDS011;32233;49.500;7.764;2023-02-28T05:43:32;5.47;;;4.77;;
7432;SDS011;32233;49.500;7.764;2023-02-28T05:46:01;7.30;;;5.37;;
7432;SDS011;32233;49.500;7.764;2023-02-28T05:48:32;8.40;;;5.40;;
7432;SDS011;32233;49.500;7.764;2023-02-28T05:51:00;8.00;;;5.77;;
7432;SDS011;32233;49.500;7.764;2023-02-28T05:53:28;6.23;;;5.33;;
7432;SDS011;32233;49.500;7.764;2023-02-28T05:55:55;7.13;;;5.40;;
7432;SDS011;32233;49.500;7.764;2023-02-28T05:58:22;6.97;;;5.20;;
7432;SDS011;32233;49.500;7.764;2023-02-28T06:00:49;8.23;;;6.03;;
7432;SDS011;32233;49.500;7.764;2023-02-28T06:03:15;8.23;;;5.57;;
7432;SDS011;32233;49.500;7.764;2023-02-28T06:05:42;9.13;;;5.80;;
7432;SDS011;32233;49.500;7.764;2023-02-28T06:08:08;7.30;;;5.63;;
7432;SDS011;32233;49.500;7.764;2023-02-28T06:10:35;9.97;;;5.90;;
7432;SDS011;32233;49.500;7.764;2023-02-28T06:13:04;8.40;;;6.00;;
7432;SDS011;32233;49.500;7.764;2023-02-28T06:15:31;7.83;;;5.90;;
7432;SDS011;32233;49.500;7.764;2023-02-28T06:17:58;7.13;;;5.57;;
7432;SDS011;32233;49.500;7.764;2023-02-28T06:20:25;7.70;;;5.57;;
7432;SDS011;32233;49.500;7.764;2023-02-28T06:22:56;7.83;;;5.87;;
7432;SDS011;32233;49.500;7.764;2023-02-28T06:25:25;7.07;;;5.00;;
7432;SDS011;32233;49.500;7.764;2023-02-28T06:27:52;6.13;;;5.37;;
7432;SDS011;32233;49.500;7.764;2023-02-28T06:30:20;8.93;;;6.07;;
7432;SDS011;32233;49.500;7.764;2023-02-28T06:32:51;6.53;;;5.73;;
7432;SDS011;32233;49.500;7.764;2023-02-28T06:35:18;8.63;;;6.13;;
7432;SDS011;32233;49.500;7.764;2023-02-28T06:37:45;7.23;;;5.70;;
7432;SDS011;32233;49.500;7.764;2023-02-28T06:40:13;8.10;;;5.97;;
7432;SDS011;32233;49.500;7.764;2023-02-28T06:42:41;6.40;;;5.70;;
7432;SDS011;32233;49.500;7.764;2023-02-28T06:45:07;6.50;;;5.13;;
7432;SDS011;32233;49.500;7.764;2023-02-28T06:47:36;7.90;;;5.27;;
7432;SDS011;32233;49.500;7.764;2023-02-28T06:50:04;6.80;;;5.07;;
7432;SDS011;32233;49.500;7.764;2023-02-28T06:52:31;6.27;;;5.07;;
7432;SDS011;32233;49.500;7.764;2023-02-28T06:54:58;6.03;;;5.07;;
7432;SDS011;32233;49.500;7.764;2023-02-28T06:57:31;5.80;;;5.10;;
7432;SDS011;32233;49.500;7.764;2023-02-28T06:59:59;5.90;;;4.90;;
7432;SDS011;32233;49.500;7.764;2023-02-28T07:02:27;5.67;;;5.07;;
7432;SDS011;32233;49.500;7.764;2023-02-28T07:04:54;6.13;;;5.20;;
7432;SDS011;32233;49.500;7.764;2023-02-28T07:07:20;7.70;;;4.93;;
7432;SDS011;32233;49.500;7.764;2023-02-28T07:09:47;6.77;;;5.13;;
7432;SDS011;32233;49.500;7.764;2023-02-28T07:12:13;5.97;;;4.70;;
7432;SDS011;32233;49.500;7.764;2023-02-28T07:14:40;6.37;;;4.97;;
7432;SDS011;32233;49.500;7.764;2023-02-28T07:17:07;6.50;;;4.27;;
7432;SDS011;32233;49.500;7.764;2023-02-28T07:19:34;7.23;;;4.60;;
7432;SDS011;32233;49.500;7.764;2023-02-28T07:22:01;5.33;;;4.37;;
7432;SDS011;32233;49.500;7.764;2023-02-28T07:24:29;6.90;;;4.40;;
7432;SDS011;32233;49.500;7.764;2023-02-28T07:26:55;5.93;;;4.57;;
7432;SDS011;32233;49.500;7.764;2023-02-28T07:29:22;4.87;;;4.07;;
7432;SDS011;32233;49.500;7.764;2023-02-28T07:31:49;5.27;;;4.50;;
7432;SDS011;32233;49.500;7.764;2023-02-28T07:34:19;6.17;;;4.23;;
7432;SDS011;32233;49.500;7.764;2023-02-28T07:36:46;4.47;;;4.07;;
7432;SDS011;32233;49.500;7.764;2023-02-28T07:39:13;6.27;;;3.97;;
7432;SDS011;32233;49.500;7.764;2023-02-28T07:41:39;4.40;;;4.00;;
7432;SDS011;32233;49.500;7.764;2023-02-28T07:44:10;5.47;;;4.20;;
7432;SDS011;32233;49.500;7.764;2023-02-28T07:46:37;4.47;;;3.80;;
7432;SDS011;32233;49.500;7.764;2023-02-28T07:49:04;6.43;;;4.10;;
7432;SDS011;32233;49.500;7.764;2023-02-28T07:51:31;4.67;;;4.17;;
7432;SDS011;32233;49.500;7.764;2023-02-28T07:53:58;4.70;;;3.90;;
7432;SDS011;32233;49.500;7.764;2023-02-28T07:56:24;4.87;;;4.30;;
7432;SDS011;32233;49.500;7.764;2023-02-28T07:58:51;6.40;;;4.60;;
7432;SDS011;32233;49.500;7.764;2023-02-28T08:01:17;4.47;;;4.07;;
7432;SDS011;32233;49.500;7.764;2023-02-28T08:03:45;6.83;;;3.87;;
7432;SDS011;32233;49.500;7.764;2023-02-28T08:06:16;5.07;;;4.13;;
7432;SDS011;32233;49.500;7.764;2023-02-28T08:08:45;6.23;;;4.20;;
7432;SDS011;32233;49.500;7.764;2023-02-28T08:11:12;4.47;;;3.80;;
7432;SDS011;32233;49.500;7.764;2023-02-28T08:13:39;5.73;;;3.90;;
7432;SDS011;32233;49.500;7.764;2023-02-28T08:16:05;4.40;;;3.97;;
7432;SDS011;32233;49.500;7.764;2023-02-28T08:18:32;5.90;;;3.83;;
7432;SDS011;32233;49.500;7.764;2023-02-28T08:20:59;5.10;;;3.70;;
7432;SDS011;32233;49.500;7.764;2023-02-28T08:23:26;5.67;;;3.67;;
7432;SDS011;32233;49.500;7.764;2023-02-28T08:25:53;4.50;;;3.90;;
7432;SDS011;32233;49.500;7.764;2023-02-28T08:28:23;4.23;;;3.43;;
7432;SDS011;32233;49.500;7.764;2023-02-28T08:30:52;5.60;;;3.93;;
7432;SDS011;32233;49.500;7.764;2023-02-28T08:33:19;4.20;;;3.77;;
7432;SDS011;32233;49.500;7.764;2023-02-28T08:35:46;5.40;;;3.60;;
7432;SDS011;32233;49.500;7.764;2023-02-28T08:38:13;3.83;;;3.53;;
7432;SDS011;32233;49.500;7.764;2023-02-28T08:40:39;4.43;;;3.53;;
7432;SDS011;32233;49.500;7.764;2023-02-28T08:43:06;3.70;;;3.40;;
7432;SDS011;32233;49.500;7.764;2023-02-28T08:45:33;5.10;;;3.60;;
7432;SDS011;32233;49.500;7.764;2023-02-28T08:47:59;3.93;;;3.50;;
7432;SDS011;32233;49.500;7.764;2023-02-28T08:50:26;4.50;;;3.70;;
7432;SDS011;32233;49.500;7.764;2023-02-28T08:52:52;5.73;;;3.47;;
7432;SDS011;32233;49.500;7.764;2023-02-28T08:55:19;5.90;;;3.90;;
7432;SDS011;32233;49.500;7.764;2023-02-28T08:57:45;4.37;;;3.97;;
7432;SDS011;32233;49.500;7.764;2023-02-28T09:00:12;4.07;;;3.63;;
7432;SDS011;32233;49.500;7.764;2023-02-28T09:02:40;4.50;;;3.60;;
7432;SDS011;32233;49.500;7.764;2023-02-28T09:05:09;3.77;;;3.47;;
7432;SDS011;32233;49.500;7.764;2023-02-28T09:07:36;6.33;;;3.60;;
7432;SDS011;32233;49.500;7.764;2023-02-28T09:10:02;7.60;;;3.60;;
7432;SDS011;32233;49.500;7.764;2023-02-28T09:12:32;5.13;;;4.00;;
7432;SDS011;32233;49.500;7.764;2023-02-28T09:15:01;4.83;;;4.17;;
7432;SDS011;32233;49.500;7.764;2023-02-28T09:17:28;4.67;;;3.80;;
7432;SDS011;32233;49.500;7.764;2023-02-28T09:19:56;5.70;;;4.20;;
7432;SDS011;32233;49.500;7.764;2023-02-28T09:22:23;5.53;;;4.30;;
7432;SDS011;32233;49.500;7.764;2023-02-28T09:24:50;4.50;;;4.00;;
7432;SDS011;32233;49.500;7.764;2023-02-28T09:27:16;7.13;;;4.20;;
7432;SDS011;32233;49.500;7.764;2023-02-28T09:29:43;5.17;;;4.63;;
7432;SDS011;32233;49.500;7.764;2023-02-28T09:32:09;4.87;;;3.90;;
7432;SDS011;32233;49.500;7.764;2023-02-28T09:34:36;4.97;;;4.40;;
7432;SDS011;32233;49.500;7.764;2023-02-28T09:37:04;6.87;;;5.07;;
7432;SDS011;32233;49.500;7.764;2023-02-28T09:39:31;6.33;;;4.83;;
7432;SDS011;32233;49.500;7.764;2023-02-28T09:41:58;9.10;;;5.00;;
7432;SDS011;32233;49.500;7.764;2023-02-28T09:44:26;5.63;;;4.40;;
7432;SDS011;32233;49.500;7.764;2023-02-28T09:46:59;6.20;;;4.83;;
7432;SDS011;32233;49.500;7.764;2023-02-28T09:49:33;8.03;;;5.27;;
7432;SDS011;32233;49.500;7.764;2023-02-28T09:52:13;7.57;;;4.93;;
7432;SDS011;32233;49.500;7.764;2023-02-28T09:54:43;5.43;;;4.90;;
7432;SDS011;32233;49.500;7.764;2023-02-28T10:00:14;6.77;;;5.00;;
7432;SDS011;32233;49.500;7.764;2023-02-28T10:05:39;5.70;;;5.10;;
7432;SDS011;32233;49.500;7.764;2023-02-28T10:08:12;7.53;;;5.37;;
7432;SDS011;32233;49.500;7.764;2023-02-28T10:10:43;7.07;;;5.00;;
7432;SDS011;32233;49.500;7.764;2023-02-28T10:15:58;8.43;;;5.20;;
7432;SDS011;32233;49.500;7.764;2023-02-28T10:18:33;6.20;;;5.27;;
7432;SDS011;32233;49.500;7.764;2023-02-28T10:21:10;6.10;;;5.50;;
7432;SDS011;32233;49.500;7.764;2023-02-28T10:23:47;7.93;;;5.50;;
7432;SDS011;32233;49.500;7.764;2023-02-28T10:26:16;6.70;;;6.00;;
7432;SDS011;32233;49.500;7.764;2023-02-28T10:28:44;5.97;;;5.30;;
7432;SDS011;32233;49.500;7.764;2023-02-28T10:31:14;6.20;;;5.60;;
7432;SDS011;32233;49.500;7.764;2023-02-28T10:33:44;6.70;;;6.10;;
7432;SDS011;32233;49.500;7.764;2023-02-28T10:36:13;6.43;;;5.60;;
7432;SDS011;32233;49.500;7.764;2023-02-28T10:38:43;6.97;;;6.00;;
7432;SDS011;32233;49.500;7.764;2023-02-28T10:41:12;6.33;;;5.73;;
7432;SDS011;32233;49.500;7.764;2023-02-28T10:43:43;7.10;;;6.23;;
7432;SDS011;32233;49.500;7.764;2023-02-28T10:46:15;7.03;;;6.27;;
7432;SDS011;32233;49.500;7.764;2023-02-28T10:49:03;7.60;;;6.13;;
7432;SDS011;32233;49.500;7.764;2023-02-28T10:51:38;7.07;;;6.37;;
7432;SDS011;32233;49.500;7.764;2023-02-28T10:54:11;8.50;;;6.70;;
7432;SDS011;32233;49.500;7.764;2023-02-28T10:56:42;7.73;;;6.80;;
7432;SDS011;32233;49.500;7.764;2023-02-28T11:01:42;6.63;;;6.00;;
7432;SDS011;32233;49.500;7.764;2023-02-28T11:09:53;8.60;;;7.03;;
7432;SDS011;32233;49.500;7.764;2023-02-28T11:18:00;7.30;;;6.60;;
7432;SDS011;32233;49.500;7.764;2023-02-28T11:20:31;6.80;;;6.07;;
7432;SDS011;32233;49.500;7.764;2023-02-28T11:23:00;9.37;;;7.33;;
7432;SDS011;32233;49.500;7.764;2023-02-28T11:25:30;9.03;;;6.97;;
7432;SDS011;32233;49.500;7.764;2023-02-28T11:28:01;7.70;;;6.77;;
7432;SDS011;32233;49.500;7.764;2023-02-28T11:30:32;7.67;;;6.87;;
7432;SDS011;32233;49.500;7.764;2023-02-28T11:33:23;8.47;;;7.30;;
7432;SDS011;32233;49.500;7.764;2023-02-28T11:35:54;7.80;;;7.00;;
7432;SDS011;32233;49.500;7.764;2023-02-28T11:38:27;9.80;;;7.27;;
7432;SDS011;32233;49.500;7.764;2023-02-28T11:41:02;9.10;;;7.40;;
7432;SDS011;32233;49.500;7.764;2023-02-28T11:46:41;9.13;;;7.20;;
7432;SDS011;32233;49.500;7.764;2023-02-28T11:52:42;10.00;;;7.67;;
7432;SDS011;32233;49.500;7.764;2023-02-28T11:55:09;8.30;;;7.13;;
7432;SDS011;32233;49.500;7.764;2023-02-28T12:00:15;10.17;;;7.53;;
7432;SDS011;32233;49.500;7.764;2023-02-28T12:05:45;7.60;;;6.90;;
7432;SDS011;32233;49.500;7.764;2023-02-28T12:08:21;8.33;;;7.53;;
7432;SDS011;32233;49.500;7.764;2023-02-28T12:13:55;7.33;;;6.57;;
7432;SDS011;32233;49.500;7.764;2023-02-28T12:24:29;8.60;;;7.13;;
7432;SDS011;32233;49.500;7.764;2023-02-28T12:27:02;8.47;;;7.10;;
7432;SDS011;32233;49.500;7.764;2023-02-28T12:29:34;7.63;;;6.83;;
7432;SDS011;32233;49.500;7.764;2023-02-28T12:32:18;8.60;;;7.70;;
7432;SDS011;32233;49.500;7.764;2023-02-28T12:37:36;9.13;;;7.77;;
7432;SDS011;32233;49.500;7.764;2023-02-28T12:40:11;8.70;;;7.80;;
7432;SDS011;32233;49.500;7.764;2023-02-28T12:42:39;9.57;;;7.97;;
7432;SDS011;32233;49.500;7.764;2023-02-28T12:47:48;7.60;;;6.83;;
7432;SDS011;32233;49.500;7.764;2023-02-28T12:50:19;7.63;;;6.83;;
7432;SDS011;32233;49.500;7.764;2023-02-28T12:52:59;7.43;;;6.63;;
7432;SDS011;32233;49.500;7.764;2023-02-28T13:09:57;8.17;;;7.13;;
7432;SDS011;32233;49.500;7.764;2023-02-28T13:12:25;9.60;;;6.93;;
7432;SDS011;32233;49.500;7.764;2023-02-28T13:17:51;7.23;;;6.53;;
7432;SDS011;32233;49.500;7.764;2023-02-28T13:20:20;9.17;;;6.47;;
7432;SDS011;32233;49.500;7.764;2023-02-28T13:22:51;8.33;;;7.20;;
7432;SDS011;32233;49.500;7.764;2023-02-28T13:27:49;8.63;;;7.23;;
7432;SDS011;32233;49.500;7.764;2023-02-28T13:33:28;9.57;;;7.13;;
7432;SDS011;32233;49.500;7.764;2023-02-28T13:36:39;9.83;;;7.60;;
7432;SDS011;32233;49.500;7.764;2023-02-28T13:38:57;8.23;;;7.07;;
7432;SDS011;32233;49.500;7.764;2023-02-28T13:51:52;10.67;;;7.83;;
7432;SDS011;32233;49.500;7.764;2023-02-28T13:57:01;11.47;;;8.20;;
7432;SDS011;32233;49.500;7.764;2023-02-28T14:02:32;11.93;;;8.77;;
7432;SDS011;32233;49.500;7.764;2023-02-28T14:05:13;10.33;;;7.80;;
7432;SDS011;32233;49.500;7.764;2023-02-28T14:07:58;10.40;;;7.60;;
7432;SDS011;32233;49.500;7.764;2023-02-28T14:10:31;12.80;;;8.50;;
7432;SDS011;32233;49.500;7.764;2023-02-28T14:13:11;11.30;;;8.00;;
7432;SDS011;32233;49.500;7.764;2023-02-28T14:18:29;9.87;;;8.17;;
7432;SDS011;32233;49.500;7.764;2023-02-28T14:29:58;10.40;;;7.70;;
7432;SDS011;32233;49.500;7.764;2023-02-28T14:32:35;8.90;;;7.70;;
7432;SDS011;32233;49.500;7.764;2023-02-28T14:38:13;11.43;;;7.57;;
7432;SDS011;32233;49.500;7.764;2023-02-28T14:40:44;11.70;;;8.50;;
7432;SDS011;32233;49.500;7.764;2023-02-28T14:43:20;11.87;;;8.50;;
7432;SDS011;32233;49.500;7.764;2023-02-28T14:45:52;11.73;;;8.40;;
7432;SDS011;32233;49.500;7.764;2023-02-28T14:48:22;11.67;;;8.10;;
7432;SDS011;32233;49.500;7.764;2023-02-28T14:50:52;11.87;;;8.23;;
7432;SDS011;32233;49.500;7.764;2023-02-28T14:53:22;12.60;;;8.87;;
7432;SDS011;32233;49.500;7.764;2023-02-28T14:55:51;10.40;;;8.53;;
7432;SDS011;32233;49.500;7.764;2023-02-28T14:58:26;11.50;;;8.73;;
7432;SDS011;32233;49.500;7.764;2023-02-28T15:00:58;10.20;;;8.13;;
7432;SDS011;32233;49.500;7.764;2023-02-28T15:03:37;12.83;;;8.83;;
7432;SDS011;32233;49.500;7.764;2023-02-28T15:06:06;13.43;;;8.77;;
7432;SDS011;32233;49.500;7.764;2023-02-28T15:08:40;12.43;;;8.27;;
7432;SDS011;32233;49.500;7.764;2023-02-28T15:13:53;11.37;;;8.37;;
7432;SDS011;32233;49.500;7.764;2023-02-28T15:16:24;13.40;;;8.63;;
7432;SDS011;32233;49.500;7.764;2023-02-28T15:18:59;12.27;;;8.53;;
7432;SDS011;32233;49.500;7.764;2023-02-28T15:21:29;11.23;;;8.13;;
7432;SDS011;32233;49.500;7.764;2023-02-28T15:26:30;13.20;;;8.93;;
7432;SDS011;32233;49.500;7.764;2023-02-28T15:29:00;11.03;;;7.97;;
7432;SDS011;32233;49.500;7.764;2023-02-28T15:31:35;8.97;;;7.80;;
7432;SDS011;32233;49.500;7.764;2023-02-28T15:34:33;11.93;;;8.53;;
7432;SDS011;32233;49.500;7.764;2023-02-28T15:43:03;11.80;;;8.40;;
7432;SDS011;32233;49.500;7.764;2023-02-28T15:45:41;12.20;;;8.13;;
7432;SDS011;32233;49.500;7.764;2023-02-28T15:50:57;10.60;;;7.97;;
7432;SDS011;32233;49.500;7.764;2023-02-28T15:53:39;13.07;;;8.33;;
7432;SDS011;32233;49.500;7.764;2023-02-28T15:58:58;12.83;;;8.53;;
7432;SDS011;32233;49.500;7.764;2023-02-28T16:01:30;12.03;;;8.77;;
7432;SDS011;32233;49.500;7.764;2023-02-28T16:04:00;14.13;;;8.67;;
7432;SDS011;32233;49.500;7.764;2023-02-28T16:07:17;10.30;;;8.23;;
7432;SDS011;32233;49.500;7.764;2023-02-28T16:09:24;11.17;;;8.33;;
7432;SDS011;32233;49.500;7.764;2023-02-28T16:11:54;12.23;;;8.87;;
7432;SDS011;32233;49.500;7.764;2023-02-28T16:14:24;10.50;;;7.77;;
7432;SDS011;32233;49.500;7.764;2023-02-28T16:16:54;9.30;;;7.73;;
7432;SDS011;32233;49.500;7.764;2023-02-28T16:19:23;11.27;;;8.30;;
7432;SDS011;32233;49.500;7.764;2023-02-28T16:21:50;12.00;;;7.93;;
7432;SDS011;32233;49.500;7.764;2023-02-28T16:24:17;12.33;;;8.20;;
7432;SDS011;32233;49.500;7.764;2023-02-28T16:26:45;10.40;;;8.17;;
7432;SDS011;32233;49.500;7.764;2023-02-28T16:29:48;12.53;;;7.93;;
7432;SDS011;32233;49.500;7.764;2023-02-28T16:32:07;11.23;;;7.60;;
7432;SDS011;32233;49.500;7.764;2023-02-28T16:34:34;11.50;;;8.00;;
7432;SDS011;32233;49.500;7.764;2023-02-28T16:37:01;12.77;;;8.77;;
7432;SDS011;32233;49.500;7.764;2023-02-28T16:39:27;12.90;;;8.37;;
7432;SDS011;32233;49.500;7.764;2023-02-28T16:41:54;12.10;;;8.00;;
7432;SDS011;32233;49.500;7.764;2023-02-28T16:44:31;11.10;;;7.97;;
7432;SDS011;32233;49.500;7.764;2023-02-28T16:47:00;13.10;;;8.60;;
7432;SDS011;32233;49.500;7.764;2023-02-28T16:49:27;12.23;;;7.77;;
7432;SDS011;32233;49.500;7.764;2023-02-28T16:51:54;10.50;;;7.83;;
7432;SDS011;32233;49.500;7.764;2023-02-28T16:54:21;12.20;;;8.17;;
7432;SDS011;32233;49.500;7.764;2023-02-28T16:56:47;10.97;;;8.23;;
7432;SDS011;32233;49.500;7.764;2023-02-28T16:59:15;13.40;;;8.07;;
7432;SDS011;32233;49.500;7.764;2023-02-28T17:01:45;11.50;;;7.83;;
7432;SDS011;32233;49.500;7.764;2023-02-28T17:04:12;9.93;;;7.70;;
7432;SDS011;32233;49.500;7.764;2023-02-28T17:06:40;11.87;;;7.60;;
7432;SDS011;32233;49.500;7.764;2023-02-28T17:09:17;11.07;;;7.50;;
7432;SDS011;32233;49.500;7.764;2023-02-28T17:11:47;11.47;;;7.53;;
7432;SDS011;32233;49.500;7.764;2023-02-28T17:14:14;10.33;;;7.67;;
7432;SDS011;32233;49.500;7.764;2023-02-28T17:16:41;11.77;;;7.30;;
7432;SDS011;32233;49.500;7.764;2023-02-28T17:19:10;11.70;;;7.67;;
7432;SDS011;32233;49.500;7.764;2023-02-28T17:21:39;12.60;;;7.87;;
7432;SDS011;32233;49.500;7.764;2023-02-28T17:24:08;12.77;;;7.17;;
7432;SDS011;32233;49.500;7.764;2023-02-28T17:26:44;14.03;;;9.70;;
7432;SDS011;32233;49.500;7.764;2023-02-28T17:29:18;12.67;;;8.03;;
7432;SDS011;32233;49.500;7.764;2023-02-28T17:31:46;10.57;;;7.77;;
7432;SDS011;32233;49.500;7.764;2023-02-28T17:34:13;11.40;;;7.27;;
7432;SDS011;32233;49.500;7.764;2023-02-28T17:36:45;11.30;;;7.37;;
7432;SDS011;32233;49.500;7.764;2023-02-28T17:39:12;11.57;;;8.07;;
7432;SDS011;32233;49.500;7.764;2023-02-28T17:41:43;13.53;;;8.97;;
7432;SDS011;32233;49.500;7.764;2023-02-28T17:44:09;10.90;;;8.60;;
7432;SDS011;32233;49.500;7.764;2023-02-28T17:46:36;13.23;;;9.50;;